createdAt,value
2019-02-16T00:02:26.234Z,4.44
2019-02-16T00:04:56.827Z,4.45
2019-02-16T00:07:27.635Z,4.43
2019-02-16T00:09:58.139Z,4.31
2019-02-16T00:12:28.895Z,4.32
2019-02-16T00:14:59.947Z,4.31
2019-02-16T00:17:30.696Z,4.20
2019-02-16T00:20:01.454Z,4.15
2019-02-16T00:22:33.430Z,4.00
2019-02-16T00:25:05.712Z,3.96
2019-02-16T00:27:36.390Z,3.91
2019-02-16T00:30:08.415Z,3.84
2019-02-16T00:32:39.506Z,3.68
2019-02-16T00:35:11.767Z,3.62
2019-02-16T00:37:47.520Z,3.51
2019-02-16T00:40:19.826Z,3.45
2019-02-16T00:42:52.637Z,3.35
2019-02-16T00:45:23.466Z,3.24
2019-02-16T00:47:54.371Z,3.22
2019-02-16T00:50:25.207Z,3.16
2019-02-16T00:52:58.020Z,3.05
2019-02-16T00:55:30.616Z,3.00
2019-02-16T00:58:02.107Z,2.95
2019-02-16T01:00:32.855Z,2.93
2019-02-16T01:03:03.583Z,2.88
2019-02-16T01:05:34.281Z,2.96
2019-02-16T01:08:04.981Z,3.06
2019-02-16T01:10:36.225Z,3.11
2019-02-16T01:13:07.021Z,3.17
2019-02-16T01:15:38.460Z,3.22
2019-02-16T01:18:09.364Z,3.23
2019-02-16T01:20:40.472Z,3.29
2019-02-16T01:23:11.530Z,3.33
2019-02-16T01:25:42.436Z,3.39
2019-02-16T01:28:13.040Z,3.40
2019-02-16T01:30:43.496Z,3.45
2019-02-16T01:33:14.266Z,3.50
2019-02-16T01:35:46.467Z,3.54
2019-02-16T01:38:17.527Z,3.53
2019-02-16T01:40:48.475Z,3.54
2019-02-16T01:43:19.355Z,3.62
2019-02-16T01:45:50.216Z,3.67
2019-02-16T01:48:21.100Z,3.71
2019-02-16T01:50:51.771Z,3.83
2019-02-16T01:53:26.296Z,3.83
2019-02-16T01:55:57.086Z,3.76
2019-02-16T01:58:28.144Z,3.77
2019-02-16T02:00:58.865Z,3.73
2019-02-16T02:03:29.911Z,3.79
2019-02-16T02:06:01.378Z,3.81
2019-02-16T02:08:32.250Z,3.81
2019-02-16T02:11:03.020Z,3.82
2019-02-16T02:13:33.735Z,3.81
2019-02-16T02:16:05.973Z,3.83
2019-02-16T02:18:37.123Z,3.74
2019-02-16T02:21:07.945Z,3.78
2019-02-16T02:23:38.702Z,3.80
2019-02-16T02:26:09.493Z,3.83
2019-02-16T02:28:41.145Z,3.83
2019-02-16T02:31:12.973Z,3.87
2019-02-16T02:33:43.533Z,4.02
2019-02-16T02:36:14.418Z,3.90
2019-02-16T02:38:46.296Z,4.00
2019-02-16T02:41:16.960Z,4.05
2019-02-16T02:43:48.360Z,4.04
2019-02-16T02:46:19.072Z,4.00
2019-02-16T02:48:50.898Z,4.02
2019-02-16T02:51:22.951Z,4.08
2019-02-16T02:53:53.464Z,4.12
2019-02-16T02:56:24.158Z,4.00
2019-02-16T02:58:54.949Z,3.88
2019-02-16T03:01:26.230Z,3.91
2019-02-16T03:04:04.914Z,3.97
2019-02-16T03:06:39.958Z,4.01
2019-02-16T03:09:17.366Z,4.09
2019-02-16T03:11:57.866Z,4.07
2019-02-16T03:14:31.653Z,4.07
2019-02-16T03:17:06.511Z,4.08
2019-02-16T03:19:45.495Z,4.16
2019-02-16T03:22:16.239Z,4.10
2019-02-16T03:24:47.016Z,4.16
2019-02-16T03:27:32.389Z,4.21
2019-02-16T03:30:35.695Z,4.15
2019-02-16T03:33:43.454Z,4.27
2019-02-16T03:36:36.740Z,4.27
2019-02-16T03:39:17.901Z,4.25
2019-02-16T03:41:52.400Z,4.08
2019-02-16T03:44:34.341Z,4.06
2019-02-16T03:47:06.669Z,4.04
2019-02-16T03:49:39.825Z,3.90
2019-02-16T03:52:14.129Z,3.87
2019-02-16T03:54:45.592Z,3.90
2019-02-16T03:57:16.393Z,3.95
2019-02-16T03:59:47.148Z,3.91
2019-02-16T04:02:17.909Z,4.00
2019-02-16T04:04:48.945Z,4.04
2019-02-16T04:07:19.393Z,4.06
2019-02-16T04:09:50.251Z,4.10
2019-02-16T04:12:22.083Z,4.02
2019-02-16T04:15:02.070Z,3.87
2019-02-16T04:17:34.059Z,3.94
2019-02-16T04:20:07.763Z,3.97
2019-02-16T04:22:42.242Z,3.85
2019-02-16T04:25:14.420Z,3.89
2019-02-16T04:27:46.289Z,3.85
2019-02-16T04:30:19.465Z,3.74
2019-02-16T04:32:52.729Z,3.78
2019-02-16T04:35:25.235Z,3.75
2019-02-16T04:38:00.373Z,3.82
2019-02-16T04:40:44.158Z,3.84
2019-02-16T04:43:21.920Z,3.81
2019-02-16T04:45:56.451Z,3.73
2019-02-16T04:48:32.571Z,3.83
2019-02-16T04:51:05.346Z,3.78
2019-02-16T04:53:39.895Z,3.79
2019-02-16T04:56:12.006Z,3.78
2019-02-16T04:58:46.081Z,3.81
2019-02-16T05:01:18.134Z,3.78
2019-02-16T05:03:49.566Z,3.75
2019-02-16T05:06:21.855Z,3.79
2019-02-16T05:08:53.760Z,3.82
2019-02-16T05:11:24.493Z,3.84
2019-02-16T05:13:55.007Z,3.82
2019-02-16T05:16:31.614Z,3.92
2019-02-16T05:19:04.135Z,3.87
2019-02-16T05:21:37.579Z,3.92
2019-02-16T05:24:12.839Z,3.92
2019-02-16T05:26:45.611Z,3.96
2019-02-16T05:29:17.093Z,4.01
2019-02-16T05:31:48.317Z,3.94
2019-02-16T05:34:20.175Z,3.95
2019-02-16T05:36:55.777Z,4.09
2019-02-16T05:39:29.510Z,4.05
2019-02-16T05:42:05.582Z,4.12
2019-02-16T05:44:40.264Z,4.20
2019-02-16T05:47:15.703Z,4.17
2019-02-16T05:49:48.922Z,4.23
2019-02-16T05:52:21.654Z,4.35
2019-02-16T05:55:01.107Z,4.46
2019-02-16T05:57:33.667Z,4.30
2019-02-16T06:00:12.277Z,4.29
2019-02-16T06:02:50.170Z,4.39
2019-02-16T06:05:21.953Z,4.39
2019-02-16T06:07:54.323Z,4.46
2019-02-16T06:10:38.091Z,4.63
2019-02-16T06:13:11.911Z,4.70
2019-02-16T06:15:46.813Z,4.71
2019-02-16T06:18:18.627Z,4.70
2019-02-16T06:20:54.637Z,4.76
2019-02-16T06:23:25.768Z,4.82
2019-02-16T06:25:59.353Z,4.79
2019-02-16T06:28:31.954Z,4.81
2019-02-16T06:31:02.646Z,4.70
2019-02-16T06:33:33.095Z,4.82
2019-02-16T06:36:09.505Z,4.95
2019-02-16T06:38:48.625Z,4.75
2019-02-16T06:41:24.805Z,4.74
2019-02-16T06:43:57.100Z,4.61
2019-02-16T06:46:36.392Z,4.70
2019-02-16T06:49:09.324Z,4.63
2019-02-16T06:51:42.520Z,4.81
2019-02-16T06:54:14.746Z,4.74
2019-02-16T06:57:04.263Z,4.92
2019-02-16T06:59:36.324Z,5.01
2019-02-16T07:02:10.763Z,5.10
2019-02-16T07:04:46.744Z,5.07
2019-02-16T07:07:19.072Z,5.16
2019-02-16T07:09:57.146Z,5.00
2019-02-16T07:12:32.289Z,5.25
2019-02-16T07:15:03.815Z,5.40
2019-02-16T07:17:46.410Z,5.45
2019-02-16T07:20:20.369Z,5.52
2019-02-16T07:22:58.766Z,5.23
2019-02-16T07:25:42.807Z,5.27
2019-02-16T07:28:17.685Z,5.29
2019-02-16T07:30:52.698Z,5.26
2019-02-16T07:33:25.992Z,5.43
2019-02-16T07:35:59.622Z,5.56
2019-02-16T07:38:40.736Z,5.70
2019-02-16T07:41:14.614Z,5.79
2019-02-16T07:44:05.277Z,5.73
2019-02-16T07:47:10.432Z,5.83
2019-02-16T07:49:55.994Z,6.02
2019-02-16T07:52:44.869Z,6.15
2019-02-16T07:55:34.239Z,6.18
2019-02-16T07:58:22.025Z,6.21
2019-02-16T08:01:11.729Z,6.42
2019-02-16T08:03:56.830Z,6.58
2019-02-16T08:06:49.486Z,6.69
2019-02-16T08:09:41.767Z,6.56
2019-02-16T08:12:38.174Z,6.65
2019-02-16T08:15:20.138Z,6.78
2019-02-16T08:18:12.368Z,6.95
2019-02-16T08:21:01.579Z,7.05
2019-02-16T08:23:52.247Z,7.13
2019-02-16T08:26:48.892Z,7.08
2019-02-16T08:29:32.118Z,7.34
2019-02-16T08:32:36.548Z,7.44
2019-02-16T08:35:26.000Z,7.55
2019-02-16T08:38:07.811Z,7.58
2019-02-16T08:40:56.061Z,7.48
2019-02-16T08:43:48.242Z,7.44
2019-02-16T08:46:40.650Z,7.43
2019-02-16T08:49:48.469Z,7.31
2019-02-16T08:52:27.336Z,7.47
2019-02-16T08:55:08.632Z,7.67
2019-02-16T08:57:55.055Z,7.71
2019-02-16T09:00:47.510Z,7.92
2019-02-16T09:03:36.868Z,7.90
2019-02-16T09:06:41.590Z,7.93
2019-02-16T09:09:37.424Z,7.88
2019-02-16T09:12:46.469Z,7.87
2019-02-16T09:15:24.370Z,7.63
2019-02-16T09:18:03.605Z,7.59
2019-02-16T09:20:43.142Z,7.56
2019-02-16T09:23:47.763Z,7.59
2019-02-16T09:26:45.750Z,7.53
2019-02-16T09:29:44.327Z,7.74
2019-02-16T09:32:30.745Z,7.72
2019-02-16T09:35:38.814Z,7.63
2019-02-16T09:38:32.501Z,7.93
2019-02-16T09:41:25.127Z,7.96
2019-02-16T09:44:24.051Z,8.27
2019-02-16T09:47:08.594Z,8.41
2019-02-16T09:49:58.999Z,8.20
2019-02-16T09:52:36.693Z,8.15
2019-02-16T09:55:16.950Z,8.39
2019-02-16T09:58:13.696Z,8.49
2019-02-16T10:01:21.600Z,8.13
2019-02-16T10:04:09.635Z,8.00
2019-02-16T10:07:17.339Z,8.00
2019-02-16T10:10:25.755Z,8.03
2019-02-16T10:13:15.638Z,7.98
2019-02-16T10:16:08.497Z,8.13
2019-02-16T10:18:58.989Z,8.18
2019-02-16T10:21:39.279Z,8.21
2019-02-16T10:24:31.383Z,8.10
2019-02-16T10:27:11.958Z,8.19
2019-02-16T10:30:01.209Z,8.28
2019-02-16T10:32:56.437Z,8.35
2019-02-16T10:35:44.594Z,8.37
2019-02-16T10:38:36.409Z,8.07
2019-02-16T10:41:20.396Z,7.94
2019-02-16T10:44:09.519Z,7.91
2019-02-16T10:47:11.228Z,7.95
2019-02-16T10:50:00.936Z,7.95
2019-02-16T10:52:49.306Z,8.13
2019-02-16T10:55:47.432Z,8.29
2019-02-16T10:58:39.968Z,8.19
2019-02-16T11:01:47.691Z,7.98
2019-02-16T11:04:38.550Z,8.19
2019-02-16T11:07:28.135Z,8.11
2019-02-16T11:10:29.703Z,8.08
2019-02-16T11:13:25.007Z,7.97
2019-02-16T11:16:11.627Z,8.01
2019-02-16T11:18:59.776Z,7.94
2019-02-16T11:21:40.910Z,7.79
2019-02-16T11:24:35.792Z,7.57
2019-02-16T11:27:08.521Z,7.50
2019-02-16T11:29:46.440Z,7.55
2019-02-16T11:32:32.965Z,7.42
2019-02-16T11:35:25.591Z,7.51
2019-02-16T11:38:08.524Z,7.60
2019-02-16T11:41:03.946Z,7.60
2019-02-16T11:43:47.770Z,7.51
2019-02-16T11:46:41.035Z,7.52
2019-02-16T11:49:33.039Z,7.57
2019-02-16T11:52:22.141Z,7.56
2019-02-16T11:55:00.858Z,7.44
2019-02-16T11:57:57.120Z,7.46
2019-02-16T12:00:52.828Z,7.56
2019-02-16T12:03:32.162Z,7.67
2019-02-16T12:06:17.128Z,7.68
2019-02-16T12:09:12.750Z,7.75
2019-02-16T12:12:00.708Z,7.62
2019-02-16T12:14:48.817Z,7.84
2019-02-16T12:17:47.614Z,7.95
2019-02-16T12:20:35.472Z,7.88
2019-02-16T12:23:12.129Z,7.98
2019-02-16T12:26:14.395Z,7.84
2019-02-16T12:29:06.575Z,7.83
2019-02-16T12:31:58.504Z,7.78
2019-02-16T12:34:45.191Z,7.91
2019-02-16T12:37:40.729Z,7.76
2019-02-16T12:40:33.583Z,7.73
2019-02-16T12:43:22.886Z,7.55
2019-02-16T12:46:15.712Z,7.43
2019-02-16T12:48:56.461Z,7.39
2019-02-16T12:51:44.985Z,7.52
2019-02-16T12:54:24.463Z,7.46
2019-02-16T12:57:02.981Z,7.40
2019-02-16T12:59:44.878Z,7.33
2019-02-16T13:02:37.537Z,7.31
2019-02-16T13:05:26.379Z,7.31
2019-02-16T13:08:19.952Z,7.39
2019-02-16T13:11:21.410Z,7.37
2019-02-16T13:14:10.059Z,7.10
2019-02-16T13:17:01.072Z,7.05
2019-02-16T13:19:54.965Z,7.08
2019-02-16T13:22:30.856Z,7.00
2019-02-16T13:25:33.502Z,6.98
2019-02-16T13:28:22.697Z,7.13
2019-02-16T13:31:18.383Z,7.17
2019-02-16T13:34:02.363Z,7.14
2019-02-16T13:36:52.522Z,7.05
2019-02-16T13:39:41.686Z,6.97
2019-02-16T13:42:40.078Z,6.85
2019-02-16T13:45:19.418Z,6.79
2019-02-16T13:48:11.649Z,6.99
2019-02-16T13:50:59.478Z,6.99
2019-02-16T13:53:58.165Z,6.96
2019-02-16T13:56:47.546Z,6.93
2019-02-16T13:59:24.624Z,6.91
2019-02-16T14:02:08.330Z,6.87
2019-02-16T14:04:45.766Z,6.79
2019-02-16T14:07:33.699Z,6.78
2019-02-16T14:10:23.684Z,6.83
2019-02-16T14:13:11.519Z,6.70
2019-02-16T14:16:03.556Z,6.64
2019-02-16T14:18:33.972Z,6.71
2019-02-16T14:21:04.742Z,6.65
2019-02-16T14:23:36.386Z,6.64
2019-02-16T14:26:07.149Z,6.57
2019-02-16T14:28:37.914Z,6.44
2019-02-16T14:31:09.351Z,6.45
2019-02-16T14:33:39.518Z,6.49
2019-02-16T14:36:10.174Z,6.62
2019-02-16T14:38:55.629Z,6.45
2019-02-16T14:41:26.110Z,6.47
2019-02-16T14:43:56.899Z,6.53
2019-02-16T14:46:29.965Z,6.57
2019-02-16T14:49:00.613Z,6.62
2019-02-16T14:51:31.032Z,6.68
2019-02-16T14:54:01.636Z,6.68
2019-02-16T14:56:32.423Z,6.74
2019-02-16T14:59:11.030Z,6.76
2019-02-16T15:01:41.783Z,6.82
2019-02-16T15:04:12.851Z,6.80
2019-02-16T15:06:43.409Z,6.79
2019-02-16T15:09:14.106Z,6.87
2019-02-16T15:11:44.516Z,6.96
2019-02-16T15:14:15.123Z,6.93
2019-02-16T15:16:45.868Z,6.82
2019-02-16T15:19:16.496Z,6.81
2019-02-16T15:21:48.195Z,6.94
2019-02-16T15:24:19.962Z,6.95
2019-02-16T15:26:51.374Z,6.95
2019-02-16T15:29:22.606Z,6.89
2019-02-16T15:31:54.462Z,6.89
2019-02-16T15:34:25.038Z,6.93
2019-02-16T15:36:55.677Z,6.99
2019-02-16T15:39:25.999Z,7.04
2019-02-16T15:41:57.353Z,7.04
2019-02-16T15:44:27.951Z,6.88
2019-02-16T15:46:59.435Z,6.87
2019-02-16T15:49:32.539Z,6.92
2019-02-16T15:52:03.738Z,6.97
2019-02-16T15:54:41.886Z,7.00
2019-02-16T15:57:12.379Z,7.00
2019-02-16T15:59:43.110Z,6.99
2019-02-16T16:02:14.059Z,7.01
2019-02-16T16:04:45.158Z,7.02
2019-02-16T16:07:18.503Z,6.99
2019-02-16T16:10:07.762Z,6.91
2019-02-16T16:12:55.915Z,6.95
2019-02-16T16:15:44.157Z,6.85
2019-02-16T16:18:21.153Z,6.81
2019-02-16T16:21:06.416Z,6.86
2019-02-16T16:24:02.057Z,6.95
2019-02-16T16:26:50.807Z,7.00
2019-02-16T16:29:53.813Z,7.05
2019-02-16T16:32:49.787Z,7.10
2019-02-16T16:35:33.557Z,7.09
2019-02-16T16:38:22.379Z,7.04
2019-02-16T16:41:11.466Z,7.11
2019-02-16T16:43:54.989Z,7.06
2019-02-16T16:46:50.994Z,7.11
2019-02-16T16:49:43.126Z,7.15
2019-02-16T16:52:32.829Z,7.13
2019-02-16T16:55:26.888Z,7.13
2019-02-16T16:58:06.551Z,7.10
2019-02-16T17:01:03.601Z,7.06
2019-02-16T17:03:59.014Z,7.04
2019-02-16T17:07:04.261Z,7.03
2019-02-16T17:09:49.177Z,7.05
2019-02-16T17:12:53.782Z,7.06
2019-02-16T17:16:01.565Z,7.08
2019-02-16T17:18:38.194Z,7.13
2019-02-16T17:21:30.787Z,7.09
2019-02-16T17:24:23.037Z,7.04
2019-02-16T17:27:11.073Z,6.92
2019-02-16T17:30:14.351Z,6.75
2019-02-16T17:33:03.255Z,6.57
2019-02-16T17:35:52.353Z,6.42
2019-02-16T17:38:33.146Z,6.25
2019-02-16T17:41:31.220Z,6.09
2019-02-16T17:44:13.004Z,6.01
2019-02-16T17:47:00.547Z,5.89
2019-02-16T17:49:53.383Z,5.79
2019-02-16T17:52:46.030Z,5.70
2019-02-16T17:55:38.642Z,5.60
2019-02-16T17:58:42.792Z,5.38
2019-02-16T18:01:30.083Z,5.32
2019-02-16T18:04:29.474Z,5.18
2019-02-16T18:07:19.476Z,5.09
2019-02-16T18:09:58.966Z,5.03
2019-02-16T18:12:54.373Z,4.94
2019-02-16T18:15:42.532Z,4.90
2019-02-16T18:18:29.745Z,4.83
2019-02-16T18:21:37.649Z,4.74
2019-02-16T18:24:32.238Z,4.71
2019-02-16T18:27:27.656Z,4.61
2019-02-16T18:30:24.233Z,4.57
2019-02-16T18:33:12.760Z,4.54
2019-02-16T18:36:11.848Z,4.55
2019-02-16T18:39:18.038Z,4.51
2019-02-16T18:42:11.312Z,4.47
2019-02-16T18:44:59.249Z,4.41
2019-02-16T18:47:41.009Z,4.40
2019-02-16T18:50:42.837Z,4.35
2019-02-16T18:53:29.924Z,4.33
2019-02-16T18:56:19.551Z,4.29
2019-02-16T18:58:57.779Z,4.26
2019-02-16T19:01:48.047Z,4.18
2019-02-16T19:04:38.081Z,4.26
2019-02-16T19:07:23.452Z,4.20
2019-02-16T19:10:08.092Z,4.16
2019-02-16T19:13:06.423Z,4.09
2019-02-16T19:16:02.332Z,4.11
2019-02-16T19:18:55.795Z,4.08
2019-02-16T19:21:34.662Z,4.14
2019-02-16T19:24:24.957Z,4.15
2019-02-16T19:27:16.604Z,4.20
2019-02-16T19:30:03.320Z,4.14
2019-02-16T19:33:02.168Z,4.13
2019-02-16T19:36:00.659Z,4.09
2019-02-16T19:38:49.436Z,4.13
2019-02-16T19:41:39.196Z,4.09
2019-02-16T19:44:31.551Z,4.16
2019-02-16T19:47:23.778Z,4.12
2019-02-16T19:50:16.127Z,4.08
2019-02-16T19:53:04.174Z,4.04
2019-02-16T19:55:56.618Z,4.11
2019-02-16T19:58:44.945Z,4.09
2019-02-16T20:01:43.671Z,4.13
2019-02-16T20:04:39.156Z,4.08
2019-02-16T20:07:33.240Z,4.10
2019-02-16T20:10:21.628Z,4.10
2019-02-16T20:13:09.991Z,4.14
2019-02-16T20:15:59.289Z,4.12
2019-02-16T20:19:01.138Z,4.09
2019-02-16T20:21:59.423Z,4.04
2019-02-16T20:24:48.902Z,4.04
2019-02-16T20:27:37.973Z,4.13
2019-02-16T20:30:28.047Z,4.12
2019-02-16T20:33:20.706Z,4.15
2019-02-16T20:36:16.239Z,4.07
2019-02-16T20:39:11.750Z,4.08
2019-02-16T20:42:22.008Z,4.05
2019-02-16T20:45:03.463Z,3.98
2019-02-16T20:47:59.611Z,3.96
2019-02-16T20:50:49.507Z,3.92
2019-02-16T20:53:48.963Z,3.91
2019-02-16T20:56:47.699Z,3.86
2019-02-16T20:59:39.439Z,3.81
2019-02-16T21:02:31.883Z,3.73
2019-02-16T21:05:31.325Z,3.73
2019-02-16T21:08:30.271Z,3.70
2019-02-16T21:11:21.631Z,3.71
2019-02-16T21:14:16.805Z,3.74
2019-02-16T21:17:12.609Z,3.71
2019-02-16T21:20:00.783Z,3.67
2019-02-16T21:22:38.999Z,3.59
2019-02-16T21:25:23.651Z,3.61
2019-02-16T21:28:10.815Z,3.53
2019-02-16T21:31:13.085Z,3.48
2019-02-16T21:34:01.561Z,3.44
2019-02-16T21:36:54.642Z,3.34
2019-02-16T21:39:35.184Z,3.38
2019-02-16T21:42:20.306Z,3.34
2019-02-16T21:45:09.557Z,3.32
2019-02-16T21:47:58.881Z,3.31
2019-02-16T21:51:02.382Z,3.34
2019-02-16T21:54:10.599Z,3.35
2019-02-16T21:57:05.969Z,3.34
2019-02-16T21:59:55.783Z,3.28
2019-02-16T22:02:50.325Z,3.28
2019-02-16T22:05:46.194Z,3.25
2019-02-16T22:08:34.826Z,3.29
2019-02-16T22:11:13.820Z,3.28
2019-02-16T22:13:46.019Z,3.38
2019-02-16T22:16:25.187Z,3.51
2019-02-16T22:18:56.488Z,3.64
2019-02-16T22:21:31.282Z,3.72
2019-02-16T22:24:07.969Z,3.80
2019-02-16T22:26:41.820Z,3.82
2019-02-16T22:29:14.922Z,3.92
2019-02-16T22:31:47.172Z,3.92
2019-02-16T22:34:18.543Z,3.93
2019-02-16T22:36:51.983Z,3.96
2019-02-16T22:39:23.657Z,4.08
2019-02-16T22:41:54.412Z,4.06
2019-02-16T22:44:25.305Z,4.24
2019-02-16T22:46:56.978Z,4.22
2019-02-16T22:49:28.324Z,4.20
2019-02-16T22:51:59.482Z,4.15
2019-02-16T22:54:30.776Z,4.03
2019-02-16T22:57:01.582Z,4.09
2019-02-16T22:59:32.854Z,4.05
2019-02-16T23:02:04.641Z,3.86
2019-02-16T23:04:35.832Z,3.75
2019-02-16T23:07:06.856Z,3.58
2019-02-16T23:09:38.087Z,3.44
2019-02-16T23:12:09.746Z,3.34
2019-02-16T23:14:40.451Z,3.25
2019-02-16T23:17:11.046Z,3.20
2019-02-16T23:19:41.760Z,3.16
2019-02-16T23:22:12.362Z,3.15
2019-02-16T23:24:43.121Z,3.20
2019-02-16T23:27:13.964Z,3.25
2019-02-16T23:29:44.645Z,3.20
2019-02-16T23:32:15.485Z,3.20
2019-02-16T23:34:46.157Z,3.16
2019-02-16T23:37:17.981Z,3.18
2019-02-16T23:39:48.818Z,3.06
2019-02-16T23:42:19.796Z,3.07
2019-02-16T23:44:50.537Z,2.97
2019-02-16T23:47:21.144Z,3.02
2019-02-16T23:49:53.111Z,3.02
2019-02-16T23:52:29.994Z,3.02
2019-02-16T23:55:02.087Z,3.02
2019-02-16T23:57:32.852Z,2.92
